Time;durP1;ratioP1;P1;durP2;ratioP2;P2;SDS_P1;SDS_P2;PMS_P1;PMS_P2;Temp;Humidity;BMP_temperature;BMP_pressure;BME280_temperature;BME280_humidity;BME280_pressure;Samples;Min_cycle;Max_cycle;Signal;HPM_P1;HPM_P2
2021/08/13 00:01:13;;;;;;;12.68;6.25;;;;;;;20.35;64.44;98834.31;4935388;29;20054;-71
2021/08/13 00:03:39;;;;;;;13.38;6.13;;;;;;;20.43;64.25;98844.38;4927621;29;20062;-71
2021/08/13 00:06:06;;;;;;;13.77;6.20;;;;;;;20.47;64.18;98847.22;4931813;29;20055;-71
2021/08/13 00:08:31;;;;;;;13.98;6.20;;;;;;;20.47;64.39;98845.28;4933459;29;20266;-71
2021/08/13 00:10:58;;;;;;;15.20;6.10;;;;;;;20.53;64.24;98843.81;4935301;29;20528;-72
2021/08/13 00:13:24;;;;;;;17.30;6.25;;;;;;;20.40;64.29;98850.66;4934020;29;20447;-70
2021/08/13 00:15:50;;;;;;;16.75;6.72;;;;;;;20.44;64.50;98842.41;4934073;29;20075;-71
2021/08/13 00:18:17;;;;;;;15.07;6.10;;;;;;;20.39;64.41;98849.06;4933713;29;20531;-70
2021/08/13 00:20:43;;;;;;;11.77;5.50;;;;;;;20.38;64.67;98850.22;4934897;29;20138;-71
2021/08/13 00:23:10;;;;;;;12.60;5.50;;;;;;;20.44;64.31;98859.06;4933556;29;20331;-71
2021/08/13 00:25:36;;;;;;;14.27;5.43;;;;;;;20.43;64.11;98861.03;4932535;29;20315;-71
2021/08/13 00:28:02;;;;;;;16.00;5.57;;;;;;;20.44;64.15;98850.75;4933468;29;20397;-71
2021/08/13 00:30:28;;;;;;;11.77;5.28;;;;;;;20.37;64.24;98846.66;4935439;29;20040;-71
2021/08/13 00:32:54;;;;;;;13.70;5.40;;;;;;;20.40;64.13;98857.03;4916289;29;20551;-71
2021/08/13 00:35:22;;;;;;;12.93;5.22;;;;;;;20.38;63.83;98855.78;4933693;29;20036;-71
2021/08/13 00:37:48;;;;;;;12.93;5.18;;;;;;;20.40;63.84;98845.94;4917127;29;20115;-72
2021/08/13 00:40:15;;;;;;;15.75;5.00;;;;;;;20.45;63.50;98852.34;4915671;29;20059;-71
2021/08/13 00:42:43;;;;;;;13.15;5.13;;;;;;;20.38;63.48;98859.38;4933048;29;20039;-71
2021/08/13 00:45:10;;;;;;;11.63;4.77;;;;;;;20.38;63.74;98853.00;4933380;29;20110;-71
2021/08/13 00:47:47;;;;;;;14.40;5.18;;;;;;;20.35;63.62;98845.41;4931950;29;20307;-71
2021/08/13 00:50:24;;;;;;;14.05;5.20;;;;;;;20.35;63.40;98851.75;4917880;29;20456;-71
2021/08/13 00:52:54;;;;;;;16.20;4.97;;;;;;;20.38;63.26;98853.00;4932541;29;20135;-71
2021/08/13 00:55:22;;;;;;;11.18;4.78;;;;;;;20.37;63.38;98851.41;4929243;29;20043;-70
2021/08/13 00:58:13;;;;;;;12.52;4.95;;;;;;;20.34;63.51;98849.34;4928762;29;20110;-71
2021/08/13 01:00:58;;;;;;;14.18;4.97;;;;;;;20.36;63.40;98849.78;4932157;29;20039;-70
2021/08/13 01:03:25;;;;;;;14.07;5.30;;;;;;;20.36;63.40;98853.34;4932735;29;20044;-71
2021/08/13 01:06:00;;;;;;;12.68;5.30;;;;;;;20.32;63.44;98854.47;4933080;29;20047;-71
2021/08/13 01:08:26;;;;;;;10.57;4.63;;;;;;;20.24;63.38;98850.72;4926678;29;20528;-70
2021/08/13 01:10:58;;;;;;;;;;;;;;;20.16;63.72;98848.97;4929421;29;20115;-70
2021/08/13 01:13:33;;;;;;;11.55;4.80;;;;;;;20.02;63.93;98841.91;4926661;29;19926;-70
2021/08/13 01:16:01;;;;;;;12.77;5.07;;;;;;;19.86;64.19;98839.16;4923351;29;20056;-69
2021/08/13 01:18:33;;;;;;;12.88;5.30;;;;;;;19.80;64.40;98843.38;4926266;29;20047;-71
2021/08/13 01:21:18;;;;;;;13.50;4.65;;;;;;;19.82;64.38;98830.75;4899710;29;20067;-72
2021/08/13 01:23:53;;;;;;;16.50;4.80;;;;;;;19.79;64.36;98831.50;4932113;29;20055;-71
2021/08/13 01:26:23;;;;;;;17.05;5.45;;;;;;;19.52;65.20;98836.78;4905330;29;20048;-71
2021/08/13 01:29:02;;;;;;;13.70;4.60;;;;;;;19.43;65.30;98844.47;4923958;29;20438;-70
2021/08/13 01:31:33;;;;;;;14.98;4.85;;;;;;;19.23;65.67;98844.38;4914648;29;20040;-70
2021/08/13 01:34:04;;;;;;;14.02;4.78;;;;;;;19.16;65.81;98843.41;4932203;29;20060;-70
2021/08/13 01:36:34;;;;;;;11.05;4.78;;;;;;;18.93;66.41;98830.91;4930586;29;20050;-69
2021/08/13 01:39:06;;;;;;;15.80;5.28;;;;;;;18.59;67.24;98841.47;4916151;29;20044;-69
2021/08/13 01:41:35;;;;;;;10.52;5.05;;;;;;;18.54;67.48;98838.97;4899580;29;20044;-69
2021/08/13 01:44:06;;;;;;;13.10;5.00;;;;;;;18.22;68.75;98855.44;4918945;29;20107;-70
2021/08/13 01:46:34;;;;;;;17.35;4.95;;;;;;;18.09;69.07;98849.91;4931909;29;20044;-71
2021/08/13 01:49:04;;;;;;;14.77;5.07;;;;;;;17.93;70.06;98851.75;4932136;29;20465;-71
2021/08/13 01:51:32;;;;;;;10.80;4.90;;;;;;;17.69;70.78;98853.38;4931753;29;20043;-71
2021/08/13 01:54:02;;;;;;;14.40;5.80;;;;;;;17.80;70.42;98854.53;4916335;29;20154;-71
2021/08/13 01:56:31;;;;;;;16.50;5.63;;;;;;;17.83;70.09;98850.28;4930309;29;20122;-70
2021/08/13 01:58:59;;;;;;;17.52;5.60;;;;;;;17.95;69.79;98855.81;4900288;29;20059;-71
2021/08/13 02:01:27;;;;;;;;;;;;;;;18.05;69.00;98860.06;4916839;29;20052;-71
2021/08/13 02:03:53;;;;;;;17.13;5.20;;;;;;;18.16;69.04;98860.41;4915339;29;20392;-72
2021/08/13 02:06:21;;;;;;;16.08;4.90;;;;;;;18.19;68.50;98847.84;4930830;29;20050;-71
2021/08/13 02:08:48;;;;;;;21.35;4.95;;;;;;;18.33;67.91;98866.81;4931552;29;20052;-72
2021/08/13 02:11:25;;;;;;;13.73;5.13;;;;;;;18.37;67.91;98870.47;4931872;29;20071;-72
2021/08/13 02:13:52;;;;;;;12.75;5.00;;;;;;;18.41;67.98;98871.38;4897834;29;20048;-72
2021/08/13 02:16:22;;;;;;;9.88;4.45;;;;;;;18.59;67.26;98860.06;4925140;29;20048;-69
2021/08/13 02:18:55;;;;;;;12.32;4.65;;;;;;;18.82;67.06;98880.47;4932937;29;20508;-71
2021/08/13 02:21:26;;;;;;;15.25;5.00;;;;;;;18.99;66.66;98890.47;4918567;29;20058;-71
2021/08/13 02:23:53;;;;;;;13.02;4.82;;;;;;;19.10;65.83;98901.03;4930439;29;21156;-70
2021/08/13 02:26:21;;;;;;;13.70;4.95;;;;;;;19.10;65.99;98885.22;4921649;29;20075;-70
2021/08/13 02:28:49;;;;;;;15.60;4.78;;;;;;;19.24;65.50;98895.88;4915769;29;20460;-70
2021/08/13 02:31:19;;;;;;;10.43;4.45;;;;;;;19.34;64.89;98913.94;4935776;29;20071;-70
2021/08/13 02:33:47;;;;;;;10.38;3.80;;;;;;;19.44;65.08;98914.56;4916506;29;20142;-71
2021/08/13 02:36:20;;;;;;;14.00;4.95;;;;;;;19.53;64.72;98906.91;4931602;29;20429;-71
2021/08/13 02:38:54;;;;;;;10.25;4.47;;;;;;;19.66;64.42;98908.41;4934396;29;20051;-71
2021/08/13 02:41:23;;;;;;;16.67;4.85;;;;;;;19.79;64.60;98906.38;4935508;29;20063;-71
2021/08/13 02:43:56;;;;;;;11.98;4.40;;;;;;;19.92;63.66;98909.06;4936025;29;20051;-71
2021/08/13 02:46:23;;;;;;;11.57;4.95;;;;;;;19.89;63.19;98905.00;4929799;29;20052;-72
2021/08/13 02:48:54;;;;;;;14.95;5.03;;;;;;;19.92;63.40;98920.16;4932685;29;20078;-71
2021/08/13 02:51:27;;;;;;;11.10;4.45;;;;;;;19.92;63.43;98922.94;4935997;29;20528;-73
2021/08/13 02:53:55;;;;;;;12.43;4.95;;;;;;;19.98;63.17;98925.09;4934588;29;20059;-71
2021/08/13 02:56:26;;;;;;;14.23;5.03;;;;;;;19.98;62.76;98930.63;4920811;29;20469;-71
2021/08/13 02:58:58;;;;;;;15.45;5.45;;;;;;;19.99;62.93;98931.41;4935354;29;20413;-71
2021/08/13 03:01:26;;;;;;;12.77;5.78;;;;;;;20.06;62.32;98934.38;4933107;29;20056;-71
2021/08/13 03:03:56;;;;;;;13.88;5.40;;;;;;;20.06;62.43;98934.38;4935508;29;20058;-72
2021/08/13 03:06:30;;;;;;;11.82;5.70;;;;;;;19.90;62.07;98934.34;4936136;29;20081;-72
2021/08/13 03:09:00;;;;;;;14.10;5.45;;;;;;;19.66;62.16;98932.56;4934777;29;20075;-72
2021/08/13 03:11:29;;;;;;;14.18;6.22;;;;;;;19.39;62.97;98937.81;4935665;29;20110;-70
2021/08/13 03:13:56;;;;;;;12.70;5.80;;;;;;;19.41;62.92;98938.25;4905446;29;20056;-71
2021/08/13 03:16:27;;;;;;;13.65;5.13;;;;;;;19.27;63.17;98945.03;4935223;29;20432;-71
2021/08/13 03:18:55;;;;;;;15.18;5.25;;;;;;;19.18;62.75;98933.31;4944282;29;20055;-72
2021/08/13 03:21:24;;;;;;;11.00;4.82;;;;;;;19.09;62.92;98944.56;4924957;29;20050;-71
2021/08/13 03:23:52;;;;;;;14.82;5.32;;;;;;;18.89;63.19;98951.88;4933992;29;20504;-70
2021/08/13 03:26:20;;;;;;;11.70;4.50;;;;;;;18.87;63.20;98947.81;4936763;29;20590;-71
2021/08/13 03:28:48;;;;;;;15.95;4.68;;;;;;;18.93;63.10;98944.47;4933192;29;20130;-72
2021/08/13 03:31:30;;;;;;;12.00;4.70;;;;;;;18.89;62.54;98949.09;4935546;29;20095;-72
2021/08/13 03:33:57;;;;;;;13.95;4.22;;;;;;;18.93;62.37;98940.91;4934788;29;20130;-73
2021/08/13 03:36:24;;;;;;;12.18;3.85;;;;;;;18.95;62.16;98935.81;4935528;29;20060;-71
2021/08/13 03:38:50;;;;;;;12.55;3.85;;;;;;;19.02;61.42;98949.88;4934885;29;20052;-71
2021/08/13 03:41:17;;;;;;;12.07;3.43;;;;;;;19.05;61.28;98948.38;4926893;29;20044;-72
2021/08/13 03:43:45;;;;;;;11.13;3.55;;;;;;;19.04;60.86;98961.41;4934511;29;20887;-70
2021/08/13 03:46:11;;;;;;;8.75;3.10;;;;;;;19.09;61.36;98966.72;4918394;29;20540;-72
2021/08/13 03:48:38;;;;;;;10.45;3.38;;;;;;;19.12;60.93;98967.94;4933066;29;20043;-71
2021/08/13 03:51:04;;;;;;;7.97;3.17;;;;;;;19.12;60.72;98968.78;4932891;29;20393;-70
2021/08/13 03:53:30;;;;;;;11.05;3.35;;;;;;;19.09;60.62;98980.56;4934023;29;20190;-71
2021/08/13 03:55:57;;;;;;;10.05;3.53;;;;;;;19.07;60.49;98982.88;4933185;29;20089;-71
2021/08/13 03:58:24;;;;;;;10.15;3.30;;;;;;;18.78;60.49;98978.44;4932835;29;20508;-71
2021/08/13 04:00:52;;;;;;;9.27;2.95;;;;;;;18.88;60.51;98975.19;4934003;29;20095;-72
2021/08/13 04:03:22;;;;;;;9.23;3.30;;;;;;;18.75;60.54;98979.97;4935892;29;20051;-71
2021/08/13 04:05:51;;;;;;;14.32;3.13;;;;;;;18.67;60.65;98983.66;4936026;29;20048;-71
2021/08/13 04:08:17;;;;;;;10.63;2.85;;;;;;;18.53;60.24;98976.53;4934394;29;20098;-71
2021/08/13 04:10:43;;;;;;;8.07;3.13;;;;;;;18.31;60.62;98971.50;4917631;29;20083;-70
2021/08/13 04:13:15;;;;;;;7.63;2.83;;;;;;;18.37;60.43;98978.41;4904620;29;20052;-71
2021/08/13 04:15:55;;;;;;;12.07;2.90;;;;;;;18.42;60.09;98975.41;4920998;29;20059;-72
2021/08/13 04:18:22;;;;;;;8.82;2.97;;;;;;;18.56;59.96;98981.34;4933099;29;20591;-72
2021/08/13 04:20:48;;;;;;;10.10;3.05;;;;;;;18.58;60.11;98988.53;4919190;29;20138;-72
2021/08/13 04:23:18;;;;;;;7.97;2.78;;;;;;;18.59;60.26;98979.06;4933387;29;20050;-71
2021/08/13 04:25:47;;;;;;;9.95;3.10;;;;;;;18.56;60.05;98966.72;4919509;29;20122;-72
2021/08/13 04:28:13;;;;;;;9.00;3.03;;;;;;;18.26;60.83;98976.13;4933616;29;20046;-71
2021/08/13 04:30:40;;;;;;;10.95;2.90;;;;;;;18.33;59.94;98964.44;4933531;29;20047;-72
2021/08/13 04:33:10;;;;;;;10.40;2.90;;;;;;;18.53;60.08;98979.28;4935075;29;20146;-71
2021/08/13 04:35:39;;;;;;;8.52;2.70;;;;;;;18.52;60.07;98963.84;4934459;29;20048;-71
2021/08/13 04:38:07;;;;;;;10.85;3.13;;;;;;;18.74;59.92;98972.00;4933394;29;20050;-71
2021/08/13 04:40:43;;;;;;;8.43;3.38;;;;;;;18.71;59.78;98979.03;4925403;29;20054;-72
2021/08/13 04:43:09;;;;;;;12.40;3.35;;;;;;;18.67;59.66;98978.94;4917199;29;20146;-71
2021/08/13 04:45:36;;;;;;;7.78;3.50;;;;;;;18.78;59.61;98983.97;4935555;29;20048;-71
2021/08/13 04:48:04;;;;;;;9.50;3.25;;;;;;;18.84;59.04;98979.81;4934063;29;20134;-71
2021/08/13 04:50:34;;;;;;;13.15;3.20;;;;;;;18.82;59.27;98968.28;4933867;29;20047;-70
2021/08/13 04:53:06;;;;;;;10.68;3.00;;;;;;;18.91;58.93;98970.91;4932007;29;20063;-71
2021/08/13 04:55:36;;;;;;;12.40;3.50;;;;;;;18.90;58.56;98972.88;4934765;29;20055;-72
2021/08/13 04:58:03;;;;;;;8.88;3.05;;;;;;;18.91;58.51;98973.69;4917292;29;20051;-73
2021/08/13 05:00:31;;;;;;;12.07;3.53;;;;;;;18.89;58.95;98974.03;4946840;28;20051;-73
2021/08/13 05:03:07;;;;;;;10.48;3.55;;;;;;;18.97;58.77;98984.16;4909835;29;20051;-73
2021/08/13 05:05:38;;;;;;;8.60;3.38;;;;;;;18.90;58.50;98988.69;4938525;29;20043;-72
2021/08/13 05:08:05;;;;;;;11.88;3.40;;;;;;;18.95;58.07;98983.69;4932148;29;20039;-71
2021/08/13 05:10:32;;;;;;;13.27;3.28;;;;;;;18.85;58.34;98975.88;4933551;29;20046;-73
2021/08/13 05:12:59;;;;;;;14.43;3.30;;;;;;;18.85;58.40;98979.44;4919718;29;20055;-72
2021/08/13 05:15:26;;;;;;;11.63;3.40;;;;;;;18.94;58.55;98979.31;4929667;29;20142;-71
2021/08/13 05:17:52;;;;;;;10.52;3.55;;;;;;;18.88;58.92;98996.53;4947761;28;20070;-72
2021/08/13 05:20:19;;;;;;;8.25;3.42;;;;;;;18.85;58.45;98979.44;4917624;29;20052;-72
2021/08/13 05:22:55;;;;;;;10.57;3.40;;;;;;;18.91;58.13;98991.09;4919488;29;20062;-71
2021/08/13 05:25:22;;;;;;;16.60;4.03;;;;;;;18.91;57.97;98988.31;4934531;29;20052;-71
2021/08/13 05:27:48;;;;;;;13.20;3.53;;;;;;;18.94;58.12;98990.38;4913412;29;20521;-72
2021/08/13 05:30:15;;;;;;;11.80;3.50;;;;;;;19.01;58.20;99000.09;4914261;29;20047;-72
2021/08/13 05:32:47;;;;;;;8.45;3.30;;;;;;;18.82;57.81;99005.06;4922980;29;20048;-71
2021/08/13 05:35:16;;;;;;;8.15;3.35;;;;;;;18.64;58.72;98998.19;4925557;29;20058;-72
2021/08/13 05:37:45;;;;;;;12.55;3.97;;;;;;;18.69;58.81;99009.84;4899647;29;20539;-72
2021/08/13 05:40:21;;;;;;;13.90;4.05;;;;;;;18.75;58.89;99004.06;4940293;29;20060;-73
2021/08/13 05:42:51;;;;;;;9.23;3.25;;;;;;;18.72;58.53;98983.41;4915100;29;20051;-72
2021/08/13 05:45:17;;;;;;;11.02;3.42;;;;;;;18.84;58.55;99000.00;4931469;29;20099;-71
2021/08/13 05:47:43;;;;;;;9.90;3.13;;;;;;;18.82;57.84;98993.22;4909676;29;20047;-73
2021/08/13 05:50:10;;;;;;;11.05;3.28;;;;;;;18.81;58.23;99010.94;4933031;29;20055;-72
2021/08/13 05:52:38;;;;;;;8.52;3.05;;;;;;;18.75;58.20;99015.94;4916802;29;20074;-72
2021/08/13 05:55:05;;;;;;;8.50;2.90;;;;;;;18.65;58.56;99013.66;4933155;29;20058;-72
2021/08/13 05:57:36;;;;;;;9.65;2.90;;;;;;;18.55;58.80;99029.56;4936385;29;20141;-72
2021/08/13 06:00:04;;;;;;;11.98;3.20;;;;;;;18.58;59.28;99035.59;4921921;29;20058;-73
2021/08/13 06:02:50;;;;;;;9.20;3.25;;;;;;;18.45;59.29;99063.28;4944273;28;20067;-72
2021/08/13 06:05:16;;;;;;;7.30;2.85;;;;;;;18.40;59.51;99027.50;4934263;29;20047;-73
2021/08/13 06:07:43;;;;;;;9.52;3.53;;;;;;;18.43;59.55;99035.94;4929441;29;20556;-71
2021/08/13 06:10:10;;;;;;;19.63;3.40;;;;;;;18.47;60.00;99046.31;4914276;29;20420;-71
2021/08/13 06:12:37;;;;;;;18.17;3.97;;;;;;;18.49;59.96;99042.03;4911261;29;20056;-71
2021/08/13 06:15:04;;;;;;;13.77;3.22;;;;;;;18.53;59.96;99025.56;4931251;29;20079;-71
2021/08/13 06:17:33;;;;;;;12.38;3.35;;;;;;;18.62;59.80;99051.13;4933229;29;20047;-71
2021/08/13 06:20:00;;;;;;;16.60;3.90;;;;;;;18.76;59.73;99041.66;4901922;29;20075;-71
2021/08/13 06:22:26;;;;;;;19.17;3.78;;;;;;;18.80;59.47;99046.16;4932639;29;20052;-72
2021/08/13 06:24:53;;;;;;;16.85;3.17;;;;;;;18.86;59.63;99060.56;4933150;29;20079;-71
2021/08/13 06:27:19;;;;;;;13.88;3.30;;;;;;;18.80;59.55;99064.72;4915466;29;20044;-71
2021/08/13 06:29:47;;;;;;;11.75;2.78;;;;;;;18.78;59.45;99072.56;4916954;29;20052;-72
2021/08/13 06:32:15;;;;;;;10.38;3.05;;;;;;;18.74;59.80;99061.41;4932080;29;20476;-70
2021/08/13 06:34:40;;;;;;;13.80;2.40;;;;;;;18.70;59.87;99066.81;4915904;29;20067;-70
2021/08/13 06:37:07;;;;;;;8.80;2.60;;;;;;;18.80;59.86;99059.19;4909033;29;20063;-72
2021/08/13 06:39:36;;;;;;;8.30;2.72;;;;;;;18.84;59.58;99062.91;4915221;29;20052;-72
2021/08/13 06:42:02;;;;;;;13.65;2.78;;;;;;;18.76;59.76;99064.63;4929588;29;20052;-72
2021/08/13 06:44:32;;;;;;;12.13;3.30;;;;;;;18.81;59.76;99061.63;4889229;29;20052;-70
2021/08/13 06:46:59;;;;;;;10.18;2.70;;;;;;;18.75;59.61;99087.13;4913326;29;20130;-71
2021/08/13 06:49:30;;;;;;;10.18;2.78;;;;;;;18.66;60.15;99085.28;4930673;29;20059;-71
2021/08/13 06:51:56;;;;;;;8.55;2.78;;;;;;;18.53;60.22;99076.16;4930214;29;20383;-72
2021/08/13 06:54:23;;;;;;;19.00;3.20;;;;;;;18.59;59.82;99076.75;4898405;29;20052;-72
2021/08/13 06:56:49;;;;;;;12.88;3.30;;;;;;;18.79;59.77;99085.25;4911945;29;20047;-72
2021/08/13 06:59:19;;;;;;;12.73;3.30;;;;;;;18.86;59.75;99077.19;4933029;29;20056;-72
2021/08/13 07:01:46;;;;;;;8.38;2.90;;;;;;;18.96;59.29;99086.97;4931051;29;20107;-71
2021/08/13 07:04:14;;;;;;;10.63;2.90;;;;;;;18.98;59.27;99091.03;4913474;29;20043;-71
2021/08/13 07:06:40;;;;;;;12.52;3.17;;;;;;;18.79;59.67;99088.84;4897329;29;20051;-72
2021/08/13 07:09:09;;;;;;;13.52;3.28;;;;;;;18.93;59.52;99088.47;4933015;29;20056;-72
2021/08/13 07:11:35;;;;;;;10.95;2.88;;;;;;;19.09;59.16;99085.84;4932791;29;20513;-71
2021/08/13 07:14:01;;;;;;;14.40;3.10;;;;;;;19.17;59.11;99077.72;4932806;29;20079;-71
2021/08/13 07:16:29;;;;;;;16.40;3.42;;;;;;;19.31;59.31;99085.66;4921824;29;20056;-71
2021/08/13 07:18:56;;;;;;;14.20;3.17;;;;;;;19.45;59.13;99071.41;4935560;29;20054;-70
2021/08/13 07:21:27;;;;;;;15.93;3.75;;;;;;;19.60;58.67;99095.59;4935191;29;20508;-71
2021/08/13 07:23:57;;;;;;;12.52;3.40;;;;;;;19.63;58.30;99083.00;4936471;29;20052;-71
2021/08/13 07:26:24;;;;;;;12.15;3.10;;;;;;;19.66;57.94;99090.59;4935948;29;20046;-70
2021/08/13 07:28:50;;;;;;;11.68;3.10;;;;;;;19.65;57.29;99119.50;4935462;29;20552;-71
2021/08/13 07:31:16;;;;;;;11.55;2.95;;;;;;;19.54;57.49;99097.03;4934762;29;20052;-70
2021/08/13 07:33:49;;;;;;;14.85;3.33;;;;;;;19.52;57.83;99104.88;4919150;29;20086;-71
2021/08/13 07:36:24;;;;;;;14.35;2.72;;;;;;;19.24;58.47;99100.13;4920760;29;20076;-71
2021/08/13 07:38:56;;;;;;;15.77;3.10;;;;;;;19.23;58.76;99104.84;4905599;29;20142;-71
2021/08/13 07:41:23;;;;;;;8.45;3.00;;;;;;;19.34;58.22;99104.34;4935648;29;20060;-70
2021/08/13 07:43:58;;;;;;;10.13;2.97;;;;;;;19.45;58.24;99111.03;4920233;29;20071;-72
2021/08/13 07:46:30;;;;;;;11.68;3.03;;;;;;;19.46;58.50;99106.28;4902320;29;20043;-71
2021/08/13 07:48:57;;;;;;;11.68;3.10;;;;;;;19.45;58.71;99108.25;4936492;29;20055;-72
2021/08/13 07:51:24;;;;;;;10.07;2.90;;;;;;;19.45;58.63;99115.75;4936254;29;20052;-73
2021/08/13 07:53:51;;;;;;;12.38;3.60;;;;;;;19.38;58.47;99114.41;4939030;29;20045;-72
2021/08/13 07:56:18;;;;;;;15.63;3.17;;;;;;;19.41;58.23;99112.88;4935578;29;20138;-72
2021/08/13 07:58:46;;;;;;;19.10;3.25;;;;;;;19.38;58.48;99108.03;4935608;29;20110;-72
2021/08/13 08:01:12;;;;;;;10.45;2.67;;;;;;;19.49;58.21;99113.88;4934792;29;20052;-71
2021/08/13 08:03:37;;;;;;;10.30;2.80;;;;;;;19.58;57.55;99136.72;4935944;29;20047;-71
2021/08/13 08:06:04;;;;;;;13.88;2.80;;;;;;;19.69;57.39;99131.50;4934906;29;20528;-72
2021/08/13 08:08:30;;;;;;;16.33;3.30;;;;;;;19.75;57.53;99120.94;4933983;29;20052;-72
2021/08/13 08:10:56;;;;;;;15.85;3.10;;;;;;;19.77;57.33;99132.50;4936579;29;20051;-72
2021/08/13 08:13:27;;;;;;;8.20;2.78;;;;;;;19.66;57.35;99135.75;4934379;29;20094;-72
2021/08/13 08:15:56;;;;;;;11.05;3.20;;;;;;;19.46;57.82;99151.44;4916464;29;20047;-72
2021/08/13 08:18:23;;;;;;;10.50;3.03;;;;;;;19.65;57.91;99145.25;4935601;29;20146;-72
2021/08/13 08:20:50;;;;;;;9.48;2.80;;;;;;;19.61;58.00;99147.13;4935779;29;20056;-72
2021/08/13 08:23:15;;;;;;;10.88;2.85;;;;;;;19.65;58.06;99156.34;4935943;29;20071;-72
2021/08/13 08:25:45;;;;;;;9.07;2.78;;;;;;;19.74;57.69;99156.19;4934951;29;20526;-72
2021/08/13 08:28:14;;;;;;;8.35;2.92;;;;;;;19.84;57.83;99149.34;4932686;29;20055;-71
2021/08/13 08:30:45;;;;;;;12.35;3.58;;;;;;;19.83;57.73;99156.84;4936820;29;20552;-71
2021/08/13 08:33:11;;;;;;;18.13;3.00;;;;;;;19.88;57.99;99161.34;4936465;29;20140;-71
2021/08/13 08:35:37;;;;;;;13.40;2.85;;;;;;;19.92;57.65;99164.25;4933623;29;20528;-71
2021/08/13 08:38:08;;;;;;;15.95;3.40;;;;;;;19.89;57.64;99165.72;4935284;29;20052;-71
2021/08/13 08:40:38;;;;;;;8.88;3.15;;;;;;;19.97;57.40;99167.56;4935090;29;20055;-71
2021/08/13 08:43:09;;;;;;;10.75;3.28;;;;;;;19.91;57.97;99160.63;4935054;29;20043;-71
2021/08/13 08:45:40;;;;;;;13.50;3.78;;;;;;;20.08;57.54;99161.50;4927928;29;20478;-71
2021/08/13 08:48:08;;;;;;;18.52;3.55;;;;;;;20.24;57.28;99161.56;4924731;29;20539;-72
2021/08/13 08:50:37;;;;;;;9.70;3.33;;;;;;;20.40;57.30;99161.56;4930069;29;20048;-71
2021/08/13 08:53:07;;;;;;;15.75;2.95;;;;;;;20.53;56.84;99156.75;4934300;29;20051;-72
2021/08/13 08:55:33;;;;;;;13.30;3.17;;;;;;;20.65;56.65;99139.19;4935798;29;20051;-72
2021/08/13 08:58:01;;;;;;;18.47;3.43;;;;;;;20.80;56.51;99152.28;4932462;29;20043;-72
2021/08/13 09:00:28;;;;;;;20.67;3.50;;;;;;;20.86;55.83;99155.59;4933204;29;20058;-73
2021/08/13 09:02:54;;;;;;;12.60;3.53;;;;;;;21.05;55.69;99145.69;4932034;29;20524;-71
2021/08/13 09:05:21;;;;;;;10.73;3.30;;;;;;;21.12;55.41;99165.31;4932247;29;20044;-72
2021/08/13 09:07:48;;;;;;;13.82;3.08;;;;;;;21.07;55.18;99143.34;4934703;29;20063;-72
2021/08/13 09:10:14;;;;;;;10.60;2.97;;;;;;;21.26;54.44;99170.41;4932159;29;20107;-71
2021/08/13 09:12:41;;;;;;;16.60;3.45;;;;;;;21.40;53.99;99158.78;4932405;29;20043;-71
2021/08/13 09:15:24;;;;;;;;;;;;;;;21.47;54.34;99167.28;4935346;29;20043;-71
2021/08/13 09:18:10;;;;;;;13.20;3.28;;;;;;;21.50;53.85;99176.84;4925187;29;20320;-72
2021/08/13 09:20:39;;;;;;;9.43;3.22;;;;;;;21.50;53.87;99180.47;4934061;29;20232;-71
2021/08/13 09:23:05;;;;;;;12.68;3.40;;;;;;;21.53;54.14;99187.25;4932369;29;20063;-71
2021/08/13 09:25:31;;;;;;;14.40;3.80;;;;;;;21.55;53.59;99190.50;4924339;29;20055;-72
2021/08/13 09:28:18;;;;;;;10.52;3.47;;;;;;;21.51;53.36;99172.91;4933209;29;20508;-72
2021/08/13 09:31:08;;;;;;;9.57;3.25;;;;;;;21.63;53.14;99188.69;4932760;29;20051;-72
2021/08/13 09:33:35;;;;;;;12.68;3.33;;;;;;;21.69;53.51;99195.56;4925917;29;20051;-73
2021/08/13 09:36:05;;;;;;;12.50;4.00;;;;;;;21.78;52.98;99203.72;4917611;29;20491;-70
2021/08/13 09:38:32;;;;;;;14.60;3.58;;;;;;;21.77;52.60;99194.53;4940096;28;20047;-73
2021/08/13 09:41:04;;;;;;;;;;;;;;;21.88;52.02;99199.53;4934382;29;20051;-73
2021/08/13 09:43:30;;;;;;;19.30;3.60;;;;;;;21.89;51.68;99212.28;4933358;29;19926;-71
2021/08/13 09:46:06;;;;;;;9.02;3.60;;;;;;;22.05;51.59;99206.63;4917974;29;20043;-72
2021/08/13 09:48:33;;;;;;;8.43;2.95;;;;;;;22.18;51.67;99193.34;4932675;29;20050;-73
2021/08/13 09:50:59;;;;;;;8.07;3.30;;;;;;;22.38;51.85;99211.63;4931870;29;20464;-72
2021/08/13 09:53:26;;;;;;;11.68;3.45;;;;;;;22.46;52.11;99209.00;4932949;29;20047;-73
2021/08/13 09:55:52;;;;;;;12.50;3.47;;;;;;;22.53;51.55;99209.16;4914435;29;20044;-72
2021/08/13 09:58:25;;;;;;;15.73;3.63;;;;;;;22.51;51.51;99229.03;4914650;29;20412;-73
2021/08/13 10:00:54;;;;;;;15.20;3.50;;;;;;;22.48;51.26;99199.13;4928398;29;20056;-72
2021/08/13 10:03:20;;;;;;;21.88;5.18;;;;;;;22.43;51.39;99213.31;4917486;29;20051;-72
2021/08/13 10:06:00;;;;;;;12.95;3.55;;;;;;;22.41;51.42;99212.88;4932526;29;20050;-71
2021/08/13 10:08:41;;;;;;;13.50;3.70;;;;;;;22.43;51.42;99209.75;4921285;29;20062;-71
2021/08/13 10:11:11;;;;;;;11.60;3.67;;;;;;;22.43;51.62;99181.91;4932835;29;20054;-71
2021/08/13 10:13:44;;;;;;;13.50;3.67;;;;;;;22.37;51.35;99203.66;4933402;29;20059;-72
2021/08/13 10:16:22;;;;;;;;;;;;;;;22.46;51.57;99220.94;4933749;29;20055;-72
2021/08/13 10:18:50;;;;;;;9.00;2.97;;;;;;;22.55;51.56;99231.84;4933290;29;19998;-72
2021/08/13 10:21:17;;;;;;;14.52;3.40;;;;;;;22.63;51.22;99213.28;4914587;29;20107;-72
2021/08/13 10:23:46;;;;;;;12.80;3.50;;;;;;;22.73;50.77;99234.97;4903212;29;20504;-71
2021/08/13 10:26:12;;;;;;;8.85;3.30;;;;;;;22.87;50.44;99228.03;4900528;29;20062;-73
2021/08/13 10:28:40;;;;;;;10.48;3.78;;;;;;;23.04;50.34;99230.31;4921485;29;20079;-73
2021/08/13 10:31:12;;;;;;;10.40;3.78;;;;;;;23.08;50.07;99217.22;4910006;29;20055;-72
2021/08/13 10:33:46;;;;;;;12.77;3.47;;;;;;;23.21;49.41;99233.75;4914639;29;20048;-72
2021/08/13 10:36:17;;;;;;;10.52;3.63;;;;;;;23.33;49.80;99224.41;4901701;29;20150;-71
2021/08/13 10:38:50;;;;;;;18.10;3.63;;;;;;;23.45;49.48;99242.91;4924219;29;20132;-72
2021/08/13 10:41:21;;;;;;;13.50;3.60;;;;;;;23.51;49.01;99233.84;4930818;29;20079;-72
2021/08/13 10:43:51;;;;;;;10.63;3.50;;;;;;;23.72;48.74;99257.66;4944502;29;20047;-72
2021/08/13 10:46:20;;;;;;;9.35;3.45;;;;;;;23.88;48.75;99253.88;4934712;28;20052;-70
2021/08/13 10:48:50;;;;;;;11.15;3.60;;;;;;;23.93;48.87;99256.31;4930892;29;20043;-72
2021/08/13 10:51:26;;;;;;;10.70;3.80;;;;;;;24.11;48.91;99248.19;4915547;29;20049;-69
2021/08/13 10:54:08;;;;;;;10.05;3.58;;;;;;;24.25;48.18;99246.75;4934589;29;20059;-70
2021/08/13 10:56:39;;;;;;;13.55;3.70;;;;;;;24.43;47.46;99258.94;4905648;29;21526;-71
2021/08/13 10:59:09;;;;;;;12.00;3.50;;;;;;;24.43;46.79;99249.72;4936904;29;20043;-73
2021/08/13 11:02:18;;;;;;;13.48;3.92;;;;;;;24.39;46.92;99262.88;4901310;29;20044;-73
2021/08/13 11:04:50;;;;;;;11.18;3.90;;;;;;;24.21;46.72;99277.44;4866761;29;20488;-71
2021/08/13 11:07:49;;;;;;;13.75;3.83;;;;;;;24.27;46.65;99256.34;4922282;29;20195;-72
2021/08/13 11:10:48;;;;;;;9.75;3.45;;;;;;;24.43;46.13;99264.53;4935339;29;20051;-72
2021/08/13 11:13:20;;;;;;;10.43;4.00;;;;;;;24.56;46.02;99265.03;4920971;29;20143;-72
2021/08/13 11:15:54;;;;;;;18.20;4.00;;;;;;;24.72;45.72;99266.78;4938244;29;20052;-72
2021/08/13 11:18:37;;;;;;;13.02;3.90;;;;;;;24.83;45.45;99267.75;4901882;29;20119;-72
2021/08/13 11:21:11;;;;;;;16.92;4.25;;;;;;;24.96;45.71;99265.44;4920654;29;20101;-71
2021/08/13 11:23:56;;;;;;;14.65;4.30;;;;;;;25.04;46.19;99272.72;4935329;29;20048;-72
2021/08/13 11:27:05;;;;;;;12.13;4.15;;;;;;;25.09;45.71;99267.97;4927842;29;20059;-71
2021/08/13 11:29:38;;;;;;;21.50;4.50;;;;;;;25.11;44.90;99283.16;4879808;29;20059;-70
2021/08/13 11:32:25;;;;;;;24.25;4.95;;;;;;;25.25;44.70;99290.06;4936006;29;20416;-70
2021/08/13 11:34:53;;;;;;;15.20;4.35;;;;;;;25.42;44.70;99285.78;4922665;29;20056;-75
2021/08/13 11:37:47;;;;;;;13.13;4.20;;;;;;;25.54;44.34;99267.94;4937703;29;20090;-76
2021/08/13 11:40:42;;;;;;;18.80;5.10;;;;;;;25.63;43.47;99283.19;4937500;29;20055;-75